Time;durP1;ratioP1;P1;durP2;ratioP2;P2;SDS_P1;SDS_P2;PMS_P1;PMS_P2;Temp;Humidity;BMP_temperature;BMP_pressure;BME280_temperature;BME280_humidity;BME280_pressure;Samples;Min_cycle;Max_cycle;Signal;HPM_P1;HPM_P2
2022/07/28 00:01:42;;;;;;;4.00;1.22;;;;;;;;;;4231726;82;28632;-82
2022/07/28 00:07:43;;;;;;;4.45;1.80;;;;;;;;;;4241819;82;28523;-83
2022/07/28 00:13:43;;;;;;;5.50;1.47;;;;;;;;;;4248823;82;28516;-82
2022/07/28 00:19:44;;;;;;;2.95;1.40;;;;;;;;;;4254247;82;28476;-82
2022/07/28 00:25:45;;;;;;;5.03;1.42;;;;;;;;;;4256700;82;28522;-83
2022/07/28 00:31:46;;;;;;;3.75;1.30;;;;;;;;;;4259941;82;28523;-82
2022/07/28 00:37:47;;;;;;;4.55;1.57;;;;;;;;;;4256731;82;28528;-82
2022/07/28 00:43:50;;;;;;;3.92;1.50;;;;;;;;;;4260885;82;28575;-83
2022/07/28 00:49:51;;;;;;;4.03;1.32;;;;;;;;;;4249152;82;28551;-80
2022/07/28 00:55:52;;;;;;;2.40;1.02;;;;;;;;;;4243723;82;28527;-81
2022/07/28 01:01:53;;;;;;;2.08;1.00;;;;;;;;;;4237818;82;28513;-81
2022/07/28 01:07:56;;;;;;;5.65;1.17;;;;;;;;;;4245437;82;28523;-81
2022/07/28 01:14:06;;;;;;;4.97;1.30;;;;;;;;;;4250299;82;28539;-83
2022/07/28 01:20:23;;;;;;;2.40;1.10;;;;;;;;;;4246758;82;28481;-82
2022/07/28 01:26:31;;;;;;;3.27;1.00;;;;;;;;;;4239100;82;28493;-82
2022/07/28 01:32:52;;;;;;;2.92;0.80;;;;;;;;;;4266582;82;28477;-81
2022/07/28 01:38:53;;;;;;;3.45;1.20;;;;;;;;;;4258823;82;28504;-81
2022/07/28 01:45:01;;;;;;;3.98;1.00;;;;;;;;;;4260318;82;28464;-81
2022/07/28 01:51:07;;;;;;;3.60;1.10;;;;;;;;;;4257991;82;28542;-81
2022/07/28 01:57:15;;;;;;;3.17;1.27;;;;;;;;;;4253313;82;28504;-80
2022/07/28 02:03:22;;;;;;;1.95;1.10;;;;;;;;;;4270532;82;28578;-81
2022/07/28 02:09:30;;;;;;;3.62;1.10;;;;;;;;;;4258273;82;28565;-81
2022/07/28 02:15:37;;;;;;;2.77;1.30;;;;;;;;;;4271408;82;28516;-81
2022/07/28 02:21:38;;;;;;;3.30;1.05;;;;;;;;;;4253292;82;28480;-82
2022/07/28 02:27:41;;;;;;;1.82;0.95;;;;;;;;;;4245568;82;28643;-83
2022/07/28 02:33:43;;;;;;;2.45;1.05;;;;;;;;;;4242660;82;28460;-81
2022/07/28 02:39:46;;;;;;;2.58;1.10;;;;;;;;;;4229756;82;28521;-82
2022/07/28 02:45:49;;;;;;;3.40;1.02;;;;;;;;;;4246802;82;28569;-82
2022/07/28 02:51:51;;;;;;;3.08;1.10;;;;;;;;;;4250114;82;28484;-82
2022/07/28 02:57:52;;;;;;;3.35;1.12;;;;;;;;;;4252578;82;28434;-81
2022/07/28 03:03:58;;;;;;;4.35;1.60;;;;;;;;;;4259164;82;28476;-82
2022/07/28 03:09:59;;;;;;;4.70;1.33;;;;;;;;;;4251590;82;28485;-82
2022/07/28 03:16:01;;;;;;;2.58;1.25;;;;;;;;;;4252686;82;43156;-82
2022/07/28 03:22:02;;;;;;;3.22;1.42;;;;;;;;;;4247995;82;28503;-83
2022/07/28 03:28:09;;;;;;;4.08;1.25;;;;;;;;;;4255221;82;28547;-81
2022/07/28 03:34:16;;;;;;;3.15;1.20;;;;;;;;;;4262443;82;28536;-82
2022/07/28 03:40:24;;;;;;;4.35;1.30;;;;;;;;;;4251092;82;28465;-82
2022/07/28 03:46:32;;;;;;;2.30;1.30;;;;;;;;;;4246754;82;28449;-83
2022/07/28 03:52:38;;;;;;;2.87;1.22;;;;;;;;;;4247625;82;28524;-84
2022/07/28 03:58:45;;;;;;;4.28;1.80;;;;;;;;;;4146069;84;28573;-82
2022/07/28 04:04:51;;;;;;;5.03;1.32;;;;;;;;;;4245754;82;28477;-81
2022/07/28 04:10:52;;;;;;;4.72;1.20;;;;;;;;;;4251586;82;28479;-81
2022/07/28 04:16:56;;;;;;;3.37;1.50;;;;;;;;;;4245030;82;28525;-81
2022/07/28 04:22:57;;;;;;;5.05;1.60;;;;;;;;;;4248338;82;28529;-80
2022/07/28 04:28:58;;;;;;;6.28;1.52;;;;;;;;;;4243460;82;28567;-80
2022/07/28 04:35:08;;;;;;;6.97;1.62;;;;;;;;;;4260759;82;28477;-81
2022/07/28 04:41:09;;;;;;;3.70;1.57;;;;;;;;;;4248687;82;28484;-81
2022/07/28 04:47:16;;;;;;;4.47;1.62;;;;;;;;;;4237625;82;28530;-81
2022/07/28 04:53:23;;;;;;;3.83;1.70;;;;;;;;;;4224076;82;28473;-80
2022/07/28 04:59:26;;;;;;;4.15;1.50;;;;;;;;;;4244249;82;28500;-81
2022/07/28 05:05:32;;;;;;;4.53;1.55;;;;;;;;;;4244623;82;28541;-80
2022/07/28 05:11:33;;;;;;;5.90;1.57;;;;;;;;;;4242644;82;28496;-82
2022/07/28 05:17:34;;;;;;;2.70;1.70;;;;;;;;;;4229246;82;28524;-81
2022/07/28 05:23:35;;;;;;;4.35;1.67;;;;;;;;;;4249031;82;28523;-79
2022/07/28 05:29:40;;;;;;;6.00;1.82;;;;;;;;;;4251920;82;28466;-80
2022/07/28 05:35:40;;;;;;;3.62;1.87;;;;;;;;;;4165430;84;28526;-78
2022/07/28 05:41:49;;;;;;;4.45;1.47;;;;;;;;;;4173620;84;28504;-81
2022/07/28 05:47:51;;;;;;;3.60;1.70;;;;;;;;;;4155168;84;28530;-80
2022/07/28 05:53:52;;;;;;;4.35;1.52;;;;;;;;;;4177067;84;28504;-81
2022/07/28 05:59:59;;;;;;;6.85;2.12;;;;;;;;;;4094136;85;28606;-81
2022/07/28 06:06:00;;;;;;;4.67;1.62;;;;;;;;;;4128013;85;28485;-81
2022/07/28 06:12:01;;;;;;;6.62;2.02;;;;;;;;;;4113857;85;28567;-80
2022/07/28 06:18:02;;;;;;;7.00;3.25;;;;;;;;;;4097751;85;28548;-81
2022/07/28 06:24:08;;;;;;;4.25;2.30;;;;;;;;;;4122007;85;28509;-80
2022/07/28 06:30:15;;;;;;;5.97;2.22;;;;;;;;;;4101295;85;28522;-80
2022/07/28 06:36:21;;;;;;;7.22;2.10;;;;;;;;;;4124463;85;28513;-81
2022/07/28 06:42:22;;;;;;;6.55;2.58;;;;;;;;;;4116776;85;28483;-81
2022/07/28 06:48:29;;;;;;;4.00;2.30;;;;;;;;;;4094869;85;28548;-80
2022/07/28 06:54:36;;;;;;;5.90;1.92;;;;;;;;;;4106872;85;28519;-80
2022/07/28 07:00:45;;;;;;;;;;;;;;;;;;4282075;82;28456;-81
2022/07/28 07:06:51;;;;;;;5.42;2.40;;;;;;;;;;4229623;82;20283;-81
2022/07/28 07:12:57;;;;;;;5.85;2.55;;;;;;;;;;4259595;82;28508;-81
2022/07/28 07:18:58;;;;;;;8.00;2.20;;;;;;;;;;4236216;82;28448;-81
2022/07/28 07:25:06;;;;;;;5.72;2.40;;;;;;;;;;4263905;82;28493;-80
2022/07/28 07:31:13;;;;;;;7.53;2.70;;;;;;;;;;4239929;82;28457;-81
2022/07/28 07:37:20;;;;;;;5.90;2.75;;;;;;;;;;4243900;82;28521;-81
2022/07/28 07:43:27;;;;;;;7.28;2.98;;;;;;;;;;4178591;84;28468;-80
2022/07/28 07:49:34;;;;;;;5.45;2.22;;;;;;;;;;4260886;83;28488;-80
2022/07/28 07:55:35;;;;;;;6.05;3.30;;;;;;;;;;4241349;82;28500;-81
2022/07/28 08:01:36;;;;;;;7.90;4.00;;;;;;;;;;4231126;82;28462;-81
2022/07/28 08:07:37;;;;;;;6.90;2.37;;;;;;;;;;4227934;82;28577;-80
2022/07/28 08:13:38;;;;;;;6.45;3.40;;;;;;;;;;4248595;83;28523;-81
2022/07/28 08:19:39;;;;;;;6.22;3.15;;;;;;;;;;4243031;82;28528;-81
2022/07/28 08:25:46;;;;;;;6.55;3.45;;;;;;;;;;4221990;82;28538;-80
2022/07/28 08:31:47;;;;;;;7.10;3.90;;;;;;;;;;4256240;82;28461;-81
2022/07/28 08:37:54;;;;;;;9.30;4.40;;;;;;;;;;4272877;82;28514;-80
2022/07/28 08:43:55;;;;;;;8.55;3.90;;;;;;;;;;4237002;82;28507;-81
2022/07/28 08:50:03;;;;;;;5.58;2.95;;;;;;;;;;4247540;82;28469;-81
2022/07/28 08:56:05;;;;;;;7.35;3.90;;;;;;;;;;4267826;82;28552;-81
2022/07/28 09:02:07;;;;;;;8.85;4.03;;;;;;;;;;4268544;81;28501;-81
2022/07/28 09:08:15;;;;;;;9.98;4.20;;;;;;;;;;4282547;82;28480;-81
2022/07/28 09:14:22;;;;;;;9.68;4.20;;;;;;;;;;4253185;82;28485;-81
2022/07/28 09:20:22;;;;;;;8.35;3.50;;;;;;;;;;4258277;82;28513;-81
2022/07/28 09:26:30;;;;;;;6.78;3.10;;;;;;;;;;4240235;82;28547;-81
2022/07/28 09:32:35;;;;;;;6.10;2.90;;;;;;;;;;4261463;82;28464;-82
2022/07/28 09:38:43;;;;;;;5.80;2.62;;;;;;;;;;4262373;82;28462;-80
2022/07/28 09:44:49;;;;;;;9.43;3.12;;;;;;;;;;4245576;82;28517;-80
2022/07/28 09:50:59;;;;;;;;;;;;;;;;;;4246175;82;28940;-81
2022/07/28 09:56:56;;;;;;;5.80;2.57;;;;;;;;;;4247811;82;20547;-82
2022/07/28 10:03:02;;;;;;;5.28;2.90;;;;;;;;;;4251605;82;28429;-81
2022/07/28 10:09:06;;;;;;;4.95;2.35;;;;;;;;;;4253311;82;28517;-81
2022/07/28 10:21:34;;;;;;;6.22;2.60;;;;;;;;;;4223037;82;28492;-81
2022/07/28 10:27:43;;;;;;;5.70;2.10;;;;;;;;;;4263130;83;28469;-81
2022/07/28 10:33:52;;;;;;;7.33;2.62;;;;;;;;;;4238299;82;28493;-81
2022/07/28 10:47:10;;;;;;;3.00;1.85;;;;;;;;;;4223141;83;28484;-80
2022/07/28 10:53:13;;;;;;;6.12;2.98;;;;;;;;;;4242185;82;28513;-81
2022/07/28 10:59:25;;;;;;;5.53;2.40;;;;;;;;;;4229797;82;28581;-82
2022/07/28 11:05:31;;;;;;;3.75;2.12;;;;;;;;;;4239683;82;28553;-82
2022/07/28 11:33:10;;;;;;;3.95;2.25;;;;;;;;;;4230758;82;28610;-81
2022/07/28 11:39:24;;;;;;;3.90;2.40;;;;;;;;;;4255202;82;28504;-82
2022/07/28 11:45:25;;;;;;;6.95;2.27;;;;;;;;;;4246906;82;28950;-81
2022/07/28 11:51:33;;;;;;;3.87;2.00;;;;;;;;;;4266771;82;28477;-81
2022/07/28 11:57:40;;;;;;;4.60;2.00;;;;;;;;;;4257281;82;28520;-81
2022/07/28 12:03:41;;;;;;;4.35;2.20;;;;;;;;;;4247403;82;28536;-82
2022/07/28 12:09:48;;;;;;;3.67;2.45;;;;;;;;;;4271562;82;28515;-81
2022/07/28 12:15:51;;;;;;;4.42;2.47;;;;;;;;;;4256140;82;28533;-82
2022/07/28 12:21:53;;;;;;;3.58;2.35;;;;;;;;;;4235264;82;28571;-80
2022/07/28 12:27:54;;;;;;;4.10;2.20;;;;;;;;;;4266138;82;28504;-80
2022/07/28 12:33:55;;;;;;;4.22;2.47;;;;;;;;;;4257921;82;28501;-81
2022/07/28 12:39:56;;;;;;;4.37;2.20;;;;;;;;;;4206607;82;28469;-81
2022/07/28 12:45:57;;;;;;;5.20;2.40;;;;;;;;;;4250386;82;28481;-81
2022/07/28 12:52:00;;;;;;;2.72;2.10;;;;;;;;;;4245706;83;28473;-82
2022/07/28 12:58:01;;;;;;;5.25;2.40;;;;;;;;;;4237121;82;28483;-81
2022/07/28 13:04:02;;;;;;;3.10;2.12;;;;;;;;;;4252901;82;28445;-81
2022/07/28 13:10:07;;;;;;;6.20;2.25;;;;;;;;;;4244931;82;28512;-81
2022/07/28 13:16:15;;;;;;;5.03;2.45;;;;;;;;;;4244119;82;28453;-82
2022/07/28 13:22:26;;;;;;;3.87;2.17;;;;;;;;;;4275799;82;28489;-82
2022/07/28 13:28:33;;;;;;;7.03;2.00;;;;;;;;;;4240246;82;28548;-81
2022/07/28 13:34:34;;;;;;;4.78;2.15;;;;;;;;;;4236779;82;28571;-81
2022/07/28 13:40:35;;;;;;;4.12;2.10;;;;;;;;;;4223688;82;28461;-81
2022/07/28 13:46:43;;;;;;;3.92;2.25;;;;;;;;;;4216361;82;28509;-81
2022/07/28 13:52:50;;;;;;;3.20;2.50;;;;;;;;;;4231275;82;28507;-81
2022/07/28 13:58:56;;;;;;;3.87;2.10;;;;;;;;;;4293898;82;28542;-81
2022/07/28 14:05:03;;;;;;;3.52;2.20;;;;;;;;;;4243490;82;28515;-81
2022/07/28 14:11:10;;;;;;;4.12;2.22;;;;;;;;;;4228174;82;28493;-82
2022/07/28 14:17:11;;;;;;;4.67;2.50;;;;;;;;;;4248004;82;28543;-81
2022/07/28 14:23:18;;;;;;;3.25;2.52;;;;;;;;;;4242946;82;28493;-82
2022/07/28 14:29:19;;;;;;;4.67;2.80;;;;;;;;;;4239316;82;28453;-81
2022/07/28 14:35:20;;;;;;;3.72;2.58;;;;;;;;;;4235510;82;28465;-81
2022/07/28 14:41:21;;;;;;;5.58;2.70;;;;;;;;;;4247737;83;28461;-81
2022/07/28 14:47:27;;;;;;;5.35;2.45;;;;;;;;;;4241873;83;28461;-81
2022/07/28 14:53:37;;;;;;;;;;;;;;;;;;4252233;82;28508;-82
2022/07/28 14:59:45;;;;;;;2.42;2.10;;;;;;;;;;4247417;82;20235;-81
2022/07/28 15:05:51;;;;;;;3.30;2.37;;;;;;;;;;4247948;82;28479;-81
2022/07/28 15:12:11;;;;;;;4.53;2.12;;;;;;;;;;4229436;82;28524;-81
2022/07/28 15:18:06;;;;;;;4.03;2.12;;;;;;;;;;4237991;82;28548;-81
2022/07/28 15:24:08;;;;;;;4.65;2.65;;;;;;;;;;4247195;82;28479;-81
2022/07/28 15:30:14;;;;;;;3.58;2.20;;;;;;;;;;4210241;82;28461;-80
2022/07/28 15:36:15;;;;;;;3.87;2.25;;;;;;;;;;4245755;82;28514;-81
2022/07/28 15:42:21;;;;;;;3.65;2.37;;;;;;;;;;4137308;84;28476;-81
2022/07/28 15:48:24;;;;;;;3.70;2.10;;;;;;;;;;4230660;84;28584;-81
2022/07/28 15:54:31;;;;;;;3.58;2.02;;;;;;;;;;4246457;82;28484;-80
2022/07/28 16:00:32;;;;;;;2.40;2.00;;;;;;;;;;4248492;82;28483;-80
2022/07/28 16:12:54;;;;;;;4.17;2.37;;;;;;;;;;4244676;82;28552;-80
2022/07/28 16:18:56;;;;;;;4.10;2.22;;;;;;;;;;4247380;82;28552;-82
2022/07/28 16:25:02;;;;;;;3.98;2.00;;;;;;;;;;4244845;82;28469;-81
2022/07/28 16:31:11;;;;;;;4.47;2.25;;;;;;;;;;4245944;82;28532;-81
2022/07/28 16:37:12;;;;;;;4.97;2.05;;;;;;;;;;4245839;82;28540;-81
2022/07/28 16:43:13;;;;;;;3.35;2.05;;;;;;;;;;4244186;81;28478;-81
2022/07/28 16:49:20;;;;;;;6.10;2.20;;;;;;;;;;4245984;82;28535;-82
2022/07/28 16:55:22;;;;;;;2.62;2.10;;;;;;;;;;4253140;82;28556;-81
2022/07/28 17:01:28;;;;;;;2.92;2.02;;;;;;;;;;4232970;82;28489;-81
2022/07/28 17:07:34;;;;;;;;;;;;;;;;;;4256625;82;28505;-81
2022/07/28 17:13:32;;;;;;;2.77;2.37;;;;;;;;;;4246477;82;20229;-82
2022/07/28 17:19:33;;;;;;;4.00;2.30;;;;;;;;;;4255374;82;28571;-81
2022/07/28 17:25:37;;;;;;;2.40;1.90;;;;;;;;;;4241691;83;28469;-81
2022/07/28 17:31:38;;;;;;;3.12;2.02;;;;;;;;;;4241551;82;28536;-81
2022/07/28 17:37:39;;;;;;;2.05;1.80;;;;;;;;;;4256273;82;28501;-81
2022/07/28 17:43:40;;;;;;;3.75;1.90;;;;;;;;;;4257546;82;28431;-82
2022/07/28 17:49:47;;;;;;;4.08;1.92;;;;;;;;;;4260788;82;28581;-83
2022/07/28 17:55:48;;;;;;;4.87;2.08;;;;;;;;;;4246578;82;28512;-84
2022/07/28 18:01:49;;;;;;;5.83;2.40;;;;;;;;;;4258140;82;28550;-83
2022/07/28 18:07:50;;;;;;;2.92;2.40;;;;;;;;;;4167404;84;28605;-84
2022/07/28 18:13:51;;;;;;;3.95;2.12;;;;;;;;;;4256805;83;28515;-84
2022/07/28 18:19:59;;;;;;;5.15;2.95;;;;;;;;;;4258737;82;28477;-84
2022/07/28 18:25:59;;;;;;;5.08;2.62;;;;;;;;;;4293769;81;28501;-83
2022/07/28 18:32:06;;;;;;;5.83;2.70;;;;;;;;;;4266250;82;28438;-81
2022/07/28 18:38:07;;;;;;;6.62;2.90;;;;;;;;;;4266138;82;28520;-82
2022/07/28 18:44:08;;;;;;;5.30;2.87;;;;;;;;;;4273496;82;28440;-81
2022/07/28 18:50:10;;;;;;;9.35;3.62;;;;;;;;;;4262106;82;28492;-81
2022/07/28 18:56:11;;;;;;;7.45;4.87;;;;;;;;;;4276500;82;28520;-82
2022/07/28 19:02:18;;;;;;;10.78;5.35;;;;;;;;;;4250018;82;28507;-81
2022/07/28 19:08:18;;;;;;;9.93;5.47;;;;;;;;;;4283416;82;28531;-83
2022/07/28 19:14:23;;;;;;;7.25;4.83;;;;;;;;;;4238924;82;28556;-83
2022/07/28 19:20:24;;;;;;;5.90;4.37;;;;;;;;;;4238008;82;28579;-84
2022/07/28 19:26:30;;;;;;;8.50;4.53;;;;;;;;;;4255992;82;28551;-87
2022/07/28 19:32:40;;;;;;;12.78;6.90;;;;;;;;;;4249226;82;28544;-85
2022/07/28 19:38:42;;;;;;;6.03;4.47;;;;;;;;;;4162851;84;28495;-85
2022/07/28 19:44:50;;;;;;;9.78;5.08;;;;;;;;;;4240731;82;28524;-84
2022/07/28 19:50:57;;;;;;;7.87;4.83;;;;;;;;;;4248566;82;28500;-85
2022/07/28 19:57:03;;;;;;;10.45;6.00;;;;;;;;;;4234717;82;28499;-87
2022/07/28 20:03:06;;;;;;;8.30;5.30;;;;;;;;;;4233274;82;28816;-86
2022/07/28 20:09:08;;;;;;;7.90;3.83;;;;;;;;;;4241320;84;28477;-86
2022/07/28 20:15:09;;;;;;;8.43;4.20;;;;;;;;;;4244507;84;28523;-85
2022/07/28 20:21:10;;;;;;;6.22;4.03;;;;;;;;;;4263539;82;28532;-86
2022/07/28 20:27:17;;;;;;;8.45;5.00;;;;;;;;;;4239247;82;28961;-85
2022/07/28 20:33:24;;;;;;;7.10;4.90;;;;;;;;;;4222185;84;28521;-85
2022/07/28 20:39:25;;;;;;;11.05;6.12;;;;;;;;;;4147319;84;28532;-86
2022/07/28 20:45:31;;;;;;;9.15;4.60;;;;;;;;;;4067680;87;28505;-86
2022/07/28 20:51:32;;;;;;;8.13;4.73;;;;;;;;;;4022686;88;28552;-84
2022/07/28 20:57:33;;;;;;;11.53;4.92;;;;;;;;;;4088565;85;28547;-85
2022/07/28 21:03:40;;;;;;;8.38;4.97;;;;;;;;;;4177790;84;28506;-84
2022/07/28 21:09:49;;;;;;;9.28;5.50;;;;;;;;;;4153394;84;28467;-84
2022/07/28 21:15:56;;;;;;;9.38;5.58;;;;;;;;;;4089739;86;28511;-85
2022/07/28 21:22:02;;;;;;;9.68;5.35;;;;;;;;;;4159552;84;28457;-84
2022/07/28 21:34:37;;;;;;;9.77;5.20;;;;;;;;;;4112525;85;28491;-84
2022/07/28 21:40:38;;;;;;;7.60;5.25;;;;;;;;;;4104351;85;28467;-85
2022/07/28 21:46:46;;;;;;;9.43;5.65;;;;;;;;;;4114189;85;28482;-84
2022/07/28 21:52:47;;;;;;;8.25;5.28;;;;;;;;;;4128416;85;28505;-85
2022/07/28 21:58:53;;;;;;;9.00;5.17;;;;;;;;;;4092804;86;28534;-80
2022/07/28 22:05:01;;;;;;;10.38;5.47;;;;;;;;;;4123532;85;28557;-82
2022/07/28 22:11:02;;;;;;;10.20;6.00;;;;;;;;;;4169733;84;28535;-83
2022/07/28 22:17:08;;;;;;;11.53;6.03;;;;;;;;;;4192497;84;28547;-82
2022/07/28 22:23:15;;;;;;;7.80;5.03;;;;;;;;;;4181814;84;28555;-82
2022/07/28 22:29:22;;;;;;;9.48;5.03;;;;;;;;;;4116941;85;28471;-83
2022/07/28 22:35:29;;;;;;;9.50;5.17;;;;;;;;;;4110732;85;28511;-82
2022/07/28 22:41:29;;;;;;;7.25;5.00;;;;;;;;;;4125580;85;28639;-83
2022/07/28 22:47:36;;;;;;;10.98;5.00;;;;;;;;;;4113148;86;29015;-85
2022/07/28 22:53:43;;;;;;;8.28;5.17;;;;;;;;;;4124052;85;28495;-85
2022/07/28 22:59:50;;;;;;;7.65;4.42;;;;;;;;;;4124378;86;28560;-85
2022/07/28 23:05:59;;;;;;;9.00;4.60;;;;;;;;;;4148831;85;28530;-85
2022/07/28 23:12:07;;;;;;;7.28;4.62;;;;;;;;;;4168868;85;28508;-83
2022/07/28 23:18:15;;;;;;;7.87;4.05;;;;;;;;;;4126087;85;28513;-85
2022/07/28 23:24:21;;;;;;;7.40;4.70;;;;;;;;;;4113278;85;28481;-85
2022/07/28 23:30:27;;;;;;;9.68;4.65;;;;;;;;;;4266651;82;28465;-85
2022/07/28 23:36:34;;;;;;;7.20;4.22;;;;;;;;;;4256982;82;28473;-86
2022/07/28 23:42:42;;;;;;;8.43;4.33;;;;;;;;;;4237348;82;28572;-85
2022/07/28 23:48:48;;;;;;;8.03;4.55;;;;;;;;;;4281472;82;28477;-86
2022/07/28 23:54:55;;;;;;;9.23;5.00;;;;;;;;;;4237956;83;28551;-86
